This is the latest recevied weather packets stored in our database for station/object 9M4RBN-3. If no packets are shown the sender has not sent any weather packets the latest 10 day(s).
| Time | Temp. | Humidity | Pressure | Rain* | Wind** | Luminosity | Snow |
|---|---|---|---|---|---|---|---|
| 1787699042 | 23.89° C | 47% | 1017.5 hPa | - | - | - | - |
| 1787698142 | 23.89° C | 48% | 1017.2 hPa | - | - | - | - |
| 1787697242 | 23.89° C | 47% | 1017.1 hPa | - | - | - | - |
| 1787696342 | 23.89° C | 47% | 1016.9 hPa | - | - | - | - |
| 1787695442 | 24.44° C | 47% | 1017 hPa | - | - | - | - |
| 1787694542 | 24.44° C | 47% | 1016.8 hPa | - | - | - | - |
| 1787693642 | 25° C | 46% | 1016.9 hPa | - | - | - | - |
| 1787692742 | 25° C | 46% | 1016.5 hPa | - | - | - | - |
| 1787691841 | 25.56° C | 47% | 1016.4 hPa | - | - | - | - |
| 1787690941 | 26.11° C | 48% | 1016.3 hPa | - | - | - | - |
| 1787690078 | 26.67° C | 51% | 1016.1 hPa | - | - | - | - |
| 1787690041 | 26.67° C | 51% | 1016.1 hPa | - | - | - | - |
| 1787689141 | 27.78° C | 60% | 1016.2 hPa | - | - | - | - |
| 1787688241 | 28.33° C | 73% | 1016.2 hPa | - | - | - | - |
| 1787687341 | 28.33° C | 74% | 1016 hPa | - | - | - | - |
| 1787686441 | 28.33° C | 74% | 1016.1 hPa | - | - | - | - |
| 1787685541 | 28.33° C | 73% | 1016.2 hPa | - | - | - | - |
| 1787684641 | 28.33° C | 73% | 1016.5 hPa | - | - | - | - |
| 1787684052 | 28.33° C | 72% | 1016.6 hPa | - | - | - | - |
| 1787683741 | 28.33° C | 72% | 1016.6 hPa | - | - | - | - |
| 1787682841 | 28.33° C | 72% | 1016.7 hPa | - | - | - | - |
| 1787681941 | 27.78° C | 71% | 1016.7 hPa | - | - | - | - |
| 1787681041 | 27.78° C | 69% | 1017.1 hPa | - | - | - | - |
| 1787680141 | 27.78° C | 69% | 1017.3 hPa | - | - | - | - |
| 1787679241 | 27.78° C | 68% | 1017.4 hPa | - | - | - | - |
* Rain since midnight (hover to see other rain measurements)
** Current wind speed in m/s (hover to see current wind gust speed)